sensor_id;sensor_type;location;lat;lon;timestamp;temperature;humidity
2623;DHT22;1321;48.690;9.022;2023-07-08T00:01:39;23.30;39.20
2623;DHT22;1321;48.690;9.022;2023-07-08T00:04:08;23.20;39.00
2623;DHT22;1321;48.690;9.022;2023-07-08T00:06:36;23.20;39.30
2623;DHT22;1321;48.690;9.022;2023-07-08T00:09:10;23.10;38.70
2623;DHT22;1321;48.690;9.022;2023-07-08T00:11:38;23.10;38.20
2623;DHT22;1321;48.690;9.022;2023-07-08T00:14:07;23.00;38.00
2623;DHT22;1321;48.690;9.022;2023-07-08T00:16:35;23.00;38.00
2623;DHT22;1321;48.690;9.022;2023-07-08T00:19:08;23.00;37.50
2623;DHT22;1321;48.690;9.022;2023-07-08T00:21:37;22.90;37.40
2623;DHT22;1321;48.690;9.022;2023-07-08T00:24:05;22.90;37.20
2623;DHT22;1321;48.690;9.022;2023-07-08T00:26:35;22.90;37.60
2623;DHT22;1321;48.690;9.022;2023-07-08T00:29:05;22.90;37.20
2623;DHT22;1321;48.690;9.022;2023-07-08T00:31:36;22.90;36.20
2623;DHT22;1321;48.690;9.022;2023-07-08T00:34:04;22.90;37.50
2623;DHT22;1321;48.690;9.022;2023-07-08T00:36:32;22.80;37.50
2623;DHT22;1321;48.690;9.022;2023-07-08T00:39:00;22.80;38.40
2623;DHT22;1321;48.690;9.022;2023-07-08T00:41:32;22.70;37.70
2623;DHT22;1321;48.690;9.022;2023-07-08T00:44:03;22.80;38.60
2623;DHT22;1321;48.690;9.022;2023-07-08T00:46:37;22.70;38.50
2623;DHT22;1321;48.690;9.022;2023-07-08T00:49:21;22.60;38.00
2623;DHT22;1321;48.690;9.022;2023-07-08T00:51:51;22.60;39.40
2623;DHT22;1321;48.690;9.022;2023-07-08T00:54:21;22.50;52.90
2623;DHT22;1321;48.690;9.022;2023-07-08T00:56:51;22.50;39.00
2623;DHT22;1321;48.690;9.022;2023-07-08T00:59:25;22.30;39.10
2623;DHT22;1321;48.690;9.022;2023-07-08T01:01:55;22.30;40.00
2623;DHT22;1321;48.690;9.022;2023-07-08T01:04:30;22.20;39.90
2623;DHT22;1321;48.690;9.022;2023-07-08T01:07:01;22.10;39.80
2623;DHT22;1321;48.690;9.022;2023-07-08T01:09:34;22.10;40.70
2623;DHT22;1321;48.690;9.022;2023-07-08T01:12:08;22.00;39.30
2623;DHT22;1321;48.690;9.022;2023-07-08T01:14:39;21.90;38.60
2623;DHT22;1321;48.690;9.022;2023-07-08T01:17:09;21.90;39.40
2623;DHT22;1321;48.690;9.022;2023-07-08T01:19:41;21.90;40.90
2623;DHT22;1321;48.690;9.022;2023-07-08T01:22:11;21.90;40.80
2623;DHT22;1321;48.690;9.022;2023-07-08T01:24:42;21.80;40.80
2623;DHT22;1321;48.690;9.022;2023-07-08T01:27:13;21.80;39.60
2623;DHT22;1321;48.690;9.022;2023-07-08T01:29:42;21.70;39.80
2623;DHT22;1321;48.690;9.022;2023-07-08T01:32:12;21.60;40.20
2623;DHT22;1321;48.690;9.022;2023-07-08T01:34:46;21.70;42.00
2623;DHT22;1321;48.690;9.022;2023-07-08T01:37:35;21.60;41.80
2623;DHT22;1321;48.690;9.022;2023-07-08T01:40:15;21.50;41.20
2623;DHT22;1321;48.690;9.022;2023-07-08T01:42:43;21.50;40.70
2623;DHT22;1321;48.690;9.022;2023-07-08T01:45:13;21.40;39.80
2623;DHT22;1321;48.690;9.022;2023-07-08T01:47:44;21.50;40.20
2623;DHT22;1321;48.690;9.022;2023-07-08T01:50:14;21.40;40.60
2623;DHT22;1321;48.690;9.022;2023-07-08T01:52:44;21.40;40.10
2623;DHT22;1321;48.690;9.022;2023-07-08T01:55:12;21.30;40.40
2623;DHT22;1321;48.690;9.022;2023-07-08T01:57:41;21.30;41.90
2623;DHT22;1321;48.690;9.022;2023-07-08T02:00:11;21.30;41.00
2623;DHT22;1321;48.690;9.022;2023-07-08T02:02:39;21.30;41.10
2623;DHT22;1321;48.690;9.022;2023-07-08T02:05:08;21.20;39.80
2623;DHT22;1321;48.690;9.022;2023-07-08T02:07:36;21.20;39.90
2623;DHT22;1321;48.690;9.022;2023-07-08T02:10:07;21.10;39.00
2623;DHT22;1321;48.690;9.022;2023-07-08T02:12:35;21.10;39.30
2623;DHT22;1321;48.690;9.022;2023-07-08T02:15:05;21.20;40.20
2623;DHT22;1321;48.690;9.022;2023-07-08T02:17:33;21.10;40.20
2623;DHT22;1321;48.690;9.022;2023-07-08T02:20:01;21.10;39.60
2623;DHT22;1321;48.690;9.022;2023-07-08T02:22:30;21.10;40.70
2623;DHT22;1321;48.690;9.022;2023-07-08T02:24:58;21.10;41.80
2623;DHT22;1321;48.690;9.022;2023-07-08T02:27:28;21.00;41.40
2623;DHT22;1321;48.690;9.022;2023-07-08T02:29:56;21.10;42.90
2623;DHT22;1321;48.690;9.022;2023-07-08T02:32:24;21.10;43.80
2623;DHT22;1321;48.690;9.022;2023-07-08T02:34:53;21.00;43.50
2623;DHT22;1321;48.690;9.022;2023-07-08T02:37:21;21.00;44.70
2623;DHT22;1321;48.690;9.022;2023-07-08T02:39:49;21.00;44.70
2623;DHT22;1321;48.690;9.022;2023-07-08T02:42:18;21.00;45.90
2623;DHT22;1321;48.690;9.022;2023-07-08T02:44:47;21.00;46.50
2623;DHT22;1321;48.690;9.022;2023-07-08T02:47:16;20.90;46.90
2623;DHT22;1321;48.690;9.022;2023-07-08T02:49:44;20.90;46.40
2623;DHT22;1321;48.690;9.022;2023-07-08T02:52:12;21.00;48.00
2623;DHT22;1321;48.690;9.022;2023-07-08T02:54:41;21.00;50.40
2623;DHT22;1321;48.690;9.022;2023-07-08T02:57:09;21.00;56.80
2623;DHT22;1321;48.690;9.022;2023-07-08T02:59:37;21.00;51.20
2623;DHT22;1321;48.690;9.022;2023-07-08T03:02:07;21.00;51.60
2623;DHT22;1321;48.690;9.022;2023-07-08T03:04:35;21.00;52.00
2623;DHT22;1321;48.690;9.022;2023-07-08T03:07:06;21.00;48.70
2623;DHT22;1321;48.690;9.022;2023-07-08T03:09:38;21.10;48.10
2623;DHT22;1321;48.690;9.022;2023-07-08T03:12:09;21.00;50.30
2623;DHT22;1321;48.690;9.022;2023-07-08T03:14:37;21.00;48.20
2623;DHT22;1321;48.690;9.022;2023-07-08T03:17:07;21.10;48.20
2623;DHT22;1321;48.690;9.022;2023-07-08T03:19:35;21.10;46.60
2623;DHT22;1321;48.690;9.022;2023-07-08T03:22:04;21.00;48.00
2623;DHT22;1321;48.690;9.022;2023-07-08T03:24:33;21.00;45.50
2623;DHT22;1321;48.690;9.022;2023-07-08T03:27:02;21.00;47.00
2623;DHT22;1321;48.690;9.022;2023-07-08T03:29:32;21.00;43.90
2623;DHT22;1321;48.690;9.022;2023-07-08T03:32:00;21.00;47.50
2623;DHT22;1321;48.690;9.022;2023-07-08T03:34:29;20.90;45.90
2623;DHT22;1321;48.690;9.022;2023-07-08T03:36:58;20.90;46.20
2623;DHT22;1321;48.690;9.022;2023-07-08T03:39:26;20.90;46.00
2623;DHT22;1321;48.690;9.022;2023-07-08T03:41:54;20.90;47.00
2623;DHT22;1321;48.690;9.022;2023-07-08T03:44:23;20.80;48.50
2623;DHT22;1321;48.690;9.022;2023-07-08T03:46:51;20.80;50.50
2623;DHT22;1321;48.690;9.022;2023-07-08T03:49:20;20.80;49.10
2623;DHT22;1321;48.690;9.022;2023-07-08T03:51:53;20.80;50.80
2623;DHT22;1321;48.690;9.022;2023-07-08T03:54:24;20.80;49.70
2623;DHT22;1321;48.690;9.022;2023-07-08T03:56:52;20.70;50.00
2623;DHT22;1321;48.690;9.022;2023-07-08T03:59:21;20.70;49.60
2623;DHT22;1321;48.690;9.022;2023-07-08T04:01:49;20.80;50.40
2623;DHT22;1321;48.690;9.022;2023-07-08T04:04:17;20.80;51.70
2623;DHT22;1321;48.690;9.022;2023-07-08T04:06:45;20.80;52.10
2623;DHT22;1321;48.690;9.022;2023-07-08T04:09:15;20.80;51.80
2623;DHT22;1321;48.690;9.022;2023-07-08T04:11:43;20.90;52.50
2623;DHT22;1321;48.690;9.022;2023-07-08T04:14:11;20.90;53.40
2623;DHT22;1321;48.690;9.022;2023-07-08T04:16:46;20.90;52.50
2623;DHT22;1321;48.690;9.022;2023-07-08T04:19:16;20.90;52.80
2623;DHT22;1321;48.690;9.022;2023-07-08T04:21:45;20.90;55.00
2623;DHT22;1321;48.690;9.022;2023-07-08T04:24:16;20.90;55.80
2623;DHT22;1321;48.690;9.022;2023-07-08T04:26:45;21.00;55.20
2623;DHT22;1321;48.690;9.022;2023-07-08T04:29:16;21.10;57.00
2623;DHT22;1321;48.690;9.022;2023-07-08T04:31:45;21.10;57.40
2623;DHT22;1321;48.690;9.022;2023-07-08T04:34:14;21.10;58.60
2623;DHT22;1321;48.690;9.022;2023-07-08T04:36:42;21.20;57.80
2623;DHT22;1321;48.690;9.022;2023-07-08T04:39:11;21.20;58.30
2623;DHT22;1321;48.690;9.022;2023-07-08T04:41:41;21.30;60.50
2623;DHT22;1321;48.690;9.022;2023-07-08T04:44:11;21.30;63.10
2623;DHT22;1321;48.690;9.022;2023-07-08T04:46:42;21.30;60.70
2623;DHT22;1321;48.690;9.022;2023-07-08T04:49:12;21.30;61.40
2623;DHT22;1321;48.690;9.022;2023-07-08T04:51:41;21.30;58.40
2623;DHT22;1321;48.690;9.022;2023-07-08T04:54:09;21.30;57.50
2623;DHT22;1321;48.690;9.022;2023-07-08T04:56:39;21.30;58.20
2623;DHT22;1321;48.690;9.022;2023-07-08T04:59:10;21.40;59.30
2623;DHT22;1321;48.690;9.022;2023-07-08T05:01:40;21.50;58.20
2623;DHT22;1321;48.690;9.022;2023-07-08T05:04:12;21.50;63.20
2623;DHT22;1321;48.690;9.022;2023-07-08T05:06:40;21.50;58.30
2623;DHT22;1321;48.690;9.022;2023-07-08T05:09:09;21.50;58.30
2623;DHT22;1321;48.690;9.022;2023-07-08T05:11:39;21.60;61.10
2623;DHT22;1321;48.690;9.022;2023-07-08T05:14:10;21.60;59.00
2623;DHT22;1321;48.690;9.022;2023-07-08T05:16:38;21.60;59.50
2623;DHT22;1321;48.690;9.022;2023-07-08T05:19:09;21.70;57.80
2623;DHT22;1321;48.690;9.022;2023-07-08T05:21:40;21.70;59.40
2623;DHT22;1321;48.690;9.022;2023-07-08T05:24:10;21.80;58.10
2623;DHT22;1321;48.690;9.022;2023-07-08T05:26:38;21.80;60.20
2623;DHT22;1321;48.690;9.022;2023-07-08T05:29:06;21.80;59.80
2623;DHT22;1321;48.690;9.022;2023-07-08T05:31:36;21.90;60.00
2623;DHT22;1321;48.690;9.022;2023-07-08T05:34:14;21.90;79.80
2623;DHT22;1321;48.690;9.022;2023-07-08T05:36:43;21.90;59.80
2623;DHT22;1321;48.690;9.022;2023-07-08T05:39:11;22.00;60.90
2623;DHT22;1321;48.690;9.022;2023-07-08T05:41:39;22.00;61.30
2623;DHT22;1321;48.690;9.022;2023-07-08T05:44:07;22.10;61.50
2623;DHT22;1321;48.690;9.022;2023-07-08T05:46:37;22.10;62.10
2623;DHT22;1321;48.690;9.022;2023-07-08T05:49:05;22.10;63.20
2623;DHT22;1321;48.690;9.022;2023-07-08T05:51:58;22.20;65.10
2623;DHT22;1321;48.690;9.022;2023-07-08T05:54:32;22.20;63.80
2623;DHT22;1321;48.690;9.022;2023-07-08T05:57:00;22.20;63.70
2623;DHT22;1321;48.690;9.022;2023-07-08T05:59:28;22.20;64.10
2623;DHT22;1321;48.690;9.022;2023-07-08T06:01:58;22.20;65.50
2623;DHT22;1321;48.690;9.022;2023-07-08T06:04:29;22.20;64.70
2623;DHT22;1321;48.690;9.022;2023-07-08T06:06:58;22.30;77.60
2623;DHT22;1321;48.690;9.022;2023-07-08T06:09:27;22.30;66.50
2623;DHT22;1321;48.690;9.022;2023-07-08T06:11:55;22.40;68.40
2623;DHT22;1321;48.690;9.022;2023-07-08T06:14:23;22.40;69.10
2623;DHT22;1321;48.690;9.022;2023-07-08T06:16:51;22.40;68.50
2623;DHT22;1321;48.690;9.022;2023-07-08T06:19:27;22.40;69.00
2623;DHT22;1321;48.690;9.022;2023-07-08T06:22:02;22.40;72.70
2623;DHT22;1321;48.690;9.022;2023-07-08T06:24:52;22.50;70.50
2623;DHT22;1321;48.690;9.022;2023-07-08T06:27:20;22.50;71.70
2623;DHT22;1321;48.690;9.022;2023-07-08T06:29:48;22.50;90.60
2623;DHT22;1321;48.690;9.022;2023-07-08T06:32:17;22.60;74.70
2623;DHT22;1321;48.690;9.022;2023-07-08T06:34:46;22.60;74.20
2623;DHT22;1321;48.690;9.022;2023-07-08T06:37:14;22.60;73.80
2623;DHT22;1321;48.690;9.022;2023-07-08T06:39:51;22.50;86.20
2623;DHT22;1321;48.690;9.022;2023-07-08T06:42:20;22.50;91.60
2623;DHT22;1321;48.690;9.022;2023-07-08T06:44:48;22.60;74.60
2623;DHT22;1321;48.690;9.022;2023-07-08T06:47:21;22.70;76.50
2623;DHT22;1321;48.690;9.022;2023-07-08T06:49:51;22.70;76.90
2623;DHT22;1321;48.690;9.022;2023-07-08T06:52:19;22.70;76.70
2623;DHT22;1321;48.690;9.022;2023-07-08T06:54:47;22.70;77.60
2623;DHT22;1321;48.690;9.022;2023-07-08T06:57:15;22.80;80.30
2623;DHT22;1321;48.690;9.022;2023-07-08T06:59:43;22.80;81.00
2623;DHT22;1321;48.690;9.022;2023-07-08T07:02:12;22.80;82.40
2623;DHT22;1321;48.690;9.022;2023-07-08T07:04:40;22.80;81.80
2623;DHT22;1321;48.690;9.022;2023-07-08T07:07:09;22.80;83.10
2623;DHT22;1321;48.690;9.022;2023-07-08T07:09:38;22.80;83.40
2623;DHT22;1321;48.690;9.022;2023-07-08T07:12:07;22.90;85.40
2623;DHT22;1321;48.690;9.022;2023-07-08T07:14:35;22.90;85.30
2623;DHT22;1321;48.690;9.022;2023-07-08T07:17:06;22.90;88.70
2623;DHT22;1321;48.690;9.022;2023-07-08T07:19:35;23.00;89.80
2623;DHT22;1321;48.690;9.022;2023-07-08T07:22:04;23.00;90.60
2623;DHT22;1321;48.690;9.022;2023-07-08T07:24:34;23.00;90.40
2623;DHT22;1321;48.690;9.022;2023-07-08T07:27:03;23.00;91.30
2623;DHT22;1321;48.690;9.022;2023-07-08T07:29:39;23.10;92.40
2623;DHT22;1321;48.690;9.022;2023-07-08T07:32:08;23.10;92.80
2623;DHT22;1321;48.690;9.022;2023-07-08T07:34:37;23.10;92.90
2623;DHT22;1321;48.690;9.022;2023-07-08T07:37:05;23.20;94.60
2623;DHT22;1321;48.690;9.022;2023-07-08T07:39:35;23.20;99.90
2623;DHT22;1321;48.690;9.022;2023-07-08T07:42:04;23.20;94.30
2623;DHT22;1321;48.690;9.022;2023-07-08T07:44:32;23.20;94.90
2623;DHT22;1321;48.690;9.022;2023-07-08T07:47:02;23.20;95.00
2623;DHT22;1321;48.690;9.022;2023-07-08T07:49:37;23.20;95.20
2623;DHT22;1321;48.690;9.022;2023-07-08T07:52:06;23.20;96.00
2623;DHT22;1321;48.690;9.022;2023-07-08T07:54:36;23.30;96.50
2623;DHT22;1321;48.690;9.022;2023-07-08T07:57:04;23.40;96.90
2623;DHT22;1321;48.690;9.022;2023-07-08T07:59:33;23.30;96.70
2623;DHT22;1321;48.690;9.022;2023-07-08T08:02:01;23.30;96.70
2623;DHT22;1321;48.690;9.022;2023-07-08T08:04:29;23.40;97.70
2623;DHT22;1321;48.690;9.022;2023-07-08T08:06:57;23.40;98.30
2623;DHT22;1321;48.690;9.022;2023-07-08T08:09:26;23.40;99.90
2623;DHT22;1321;48.690;9.022;2023-07-08T08:11:55;23.50;98.80
2623;DHT22;1321;48.690;9.022;2023-07-08T08:14:24;23.40;98.20
2623;DHT22;1321;48.690;9.022;2023-07-08T08:16:52;23.50;98.60
2623;DHT22;1321;48.690;9.022;2023-07-08T08:19:20;23.50;99.00
2623;DHT22;1321;48.690;9.022;2023-07-08T08:21:49;23.60;99.90
2623;DHT22;1321;48.690;9.022;2023-07-08T08:24:17;23.60;99.90
2623;DHT22;1321;48.690;9.022;2023-07-08T08:26:45;23.70;99.90
2623;DHT22;1321;48.690;9.022;2023-07-08T08:29:15;23.70;99.90
2623;DHT22;1321;48.690;9.022;2023-07-08T08:31:43;23.80;99.90
2623;DHT22;1321;48.690;9.022;2023-07-08T08:34:11;23.80;99.90
2623;DHT22;1321;48.690;9.022;2023-07-08T08:36:39;23.80;99.90
2623;DHT22;1321;48.690;9.022;2023-07-08T08:39:07;23.80;99.90
2623;DHT22;1321;48.690;9.022;2023-07-08T08:41:38;23.90;99.90
2623;DHT22;1321;48.690;9.022;2023-07-08T08:44:12;24.10;99.90
2623;DHT22;1321;48.690;9.022;2023-07-08T08:46:49;24.20;99.90
2623;DHT22;1321;48.690;9.022;2023-07-08T08:49:25;24.40;99.90
2623;DHT22;1321;48.690;9.022;2023-07-08T08:51:55;24.40;99.90
2623;DHT22;1321;48.690;9.022;2023-07-08T08:54:26;24.50;99.90
2623;DHT22;1321;48.690;9.022;2023-07-08T08:57:00;24.70;99.90
2623;DHT22;1321;48.690;9.022;2023-07-08T08:59:37;24.70;99.90
2623;DHT22;1321;48.690;9.022;2023-07-08T09:02:25;24.70;99.90
2623;DHT22;1321;48.690;9.022;2023-07-08T09:04:57;24.70;99.90
2623;DHT22;1321;48.690;9.022;2023-07-08T09:07:27;24.70;99.90
2623;DHT22;1321;48.690;9.022;2023-07-08T09:10:03;24.60;99.90
2623;DHT22;1321;48.690;9.022;2023-07-08T09:12:33;24.60;99.90
2623;DHT22;1321;48.690;9.022;2023-07-08T09:15:11;24.50;99.40
2623;DHT22;1321;48.690;9.022;2023-07-08T09:17:41;24.60;99.90
2623;DHT22;1321;48.690;9.022;2023-07-08T09:20:20;24.60;99.90
2623;DHT22;1321;48.690;9.022;2023-07-08T09:22:53;24.60;99.90
2623;DHT22;1321;48.690;9.022;2023-07-08T09:25:29;24.70;99.90
2623;DHT22;1321;48.690;9.022;2023-07-08T09:27:58;24.80;99.90
2623;DHT22;1321;48.690;9.022;2023-07-08T09:30:26;24.80;99.90
2623;DHT22;1321;48.690;9.022;2023-07-08T09:32:57;24.80;99.30
2623;DHT22;1321;48.690;9.022;2023-07-08T09:35:44;25.00;99.50
2623;DHT22;1321;48.690;9.022;2023-07-08T09:38:16;25.00;98.70
2623;DHT22;1321;48.690;9.022;2023-07-08T09:40:47;25.10;99.10
2623;DHT22;1321;48.690;9.022;2023-07-08T09:43:24;25.10;98.70
2623;DHT22;1321;48.690;9.022;2023-07-08T09:45:57;25.20;99.30
2623;DHT22;1321;48.690;9.022;2023-07-08T09:48:29;25.30;99.20
2623;DHT22;1321;48.690;9.022;2023-07-08T09:50:58;25.50;99.90
2623;DHT22;1321;48.690;9.022;2023-07-08T09:53:27;25.70;99.90
2623;DHT22;1321;48.690;9.022;2023-07-08T09:55:58;25.70;99.90
2623;DHT22;1321;48.690;9.022;2023-07-08T09:58:29;25.90;99.90
2623;DHT22;1321;48.690;9.022;2023-07-08T10:01:01;25.90;99.90
2623;DHT22;1321;48.690;9.022;2023-07-08T10:03:34;25.90;99.90
2623;DHT22;1321;48.690;9.022;2023-07-08T10:06:25;25.80;99.90
2623;DHT22;1321;48.690;9.022;2023-07-08T10:08:54;25.80;99.90
2623;DHT22;1321;48.690;9.022;2023-07-08T10:11:27;25.90;99.90
2623;DHT22;1321;48.690;9.022;2023-07-08T10:13:59;25.90;99.90
2623;DHT22;1321;48.690;9.022;2023-07-08T10:16:41;25.90;99.90
2623;DHT22;1321;48.690;9.022;2023-07-08T10:19:15;25.90;99.90
2623;DHT22;1321;48.690;9.022;2023-07-08T10:21:51;25.80;99.90
2623;DHT22;1321;48.690;9.022;2023-07-08T10:24:33;25.90;99.90
2623;DHT22;1321;48.690;9.022;2023-07-08T10:27:11;26.00;99.90
2623;DHT22;1321;48.690;9.022;2023-07-08T10:29:49;26.00;99.90
2623;DHT22;1321;48.690;9.022;2023-07-08T10:32:27;25.90;99.90
2623;DHT22;1321;48.690;9.022;2023-07-08T10:35:04;25.90;99.90
2623;DHT22;1321;48.690;9.022;2023-07-08T10:37:47;26.00;99.90
2623;DHT22;1321;48.690;9.022;2023-07-08T10:40:29;25.90;99.90
2623;DHT22;1321;48.690;9.022;2023-07-08T10:43:18;25.90;99.90
2623;DHT22;1321;48.690;9.022;2023-07-08T10:45:59;26.00;99.90
2623;DHT22;1321;48.690;9.022;2023-07-08T10:48:42;26.00;99.90
2623;DHT22;1321;48.690;9.022;2023-07-08T10:51:21;26.00;99.90
2623;DHT22;1321;48.690;9.022;2023-07-08T10:56:50;26.10;99.90
2623;DHT22;1321;48.690;9.022;2023-07-08T10:59:32;26.20;99.90
2623;DHT22;1321;48.690;9.022;2023-07-08T11:02:19;26.20;99.90
2623;DHT22;1321;48.690;9.022;2023-07-08T11:04:57;26.20;99.90
2623;DHT22;1321;48.690;9.022;2023-07-08T11:07:38;26.20;99.90
2623;DHT22;1321;48.690;9.022;2023-07-08T11:10:13;26.20;99.90
2623;DHT22;1321;48.690;9.022;2023-07-08T11:12:46;26.40;99.90
2623;DHT22;1321;48.690;9.022;2023-07-08T11:15:19;26.50;99.90
2623;DHT22;1321;48.690;9.022;2023-07-08T11:17:52;26.50;99.90
2623;DHT22;1321;48.690;9.022;2023-07-08T11:20:28;26.60;99.90
2623;DHT22;1321;48.690;9.022;2023-07-08T11:23:03;26.60;99.90
2623;DHT22;1321;48.690;9.022;2023-07-08T11:25:33;26.60;99.90
2623;DHT22;1321;48.690;9.022;2023-07-08T11:28:04;26.70;99.90
2623;DHT22;1321;48.690;9.022;2023-07-08T11:30:34;26.60;99.90
2623;DHT22;1321;48.690;9.022;2023-07-08T11:33:09;26.60;99.90
2623;DHT22;1321;48.690;9.022;2023-07-08T11:35:40;26.60;99.90
2623;DHT22;1321;48.690;9.022;2023-07-08T11:38:13;26.70;99.90
2623;DHT22;1321;48.690;9.022;2023-07-08T11:40:51;26.70;99.90
2623;DHT22;1321;48.690;9.022;2023-07-08T11:43:21;26.80;99.90
2623;DHT22;1321;48.690;9.022;2023-07-08T11:45:54;27.00;99.90
2623;DHT22;1321;48.690;9.022;2023-07-08T11:48:26;27.00;99.90
2623;DHT22;1321;48.690;9.022;2023-07-08T11:50:56;26.90;99.90
2623;DHT22;1321;48.690;9.022;2023-07-08T11:53:36;26.90;99.90
2623;DHT22;1321;48.690;9.022;2023-07-08T11:56:19;26.90;99.90
2623;DHT22;1321;48.690;9.022;2023-07-08T11:59:04;26.90;99.90
2623;DHT22;1321;48.690;9.022;2023-07-08T12:01:38;27.10;99.90
2623;DHT22;1321;48.690;9.022;2023-07-08T12:04:24;27.10;99.90
2623;DHT22;1321;48.690;9.022;2023-07-08T12:07:12;27.00;99.90
2623;DHT22;1321;48.690;9.022;2023-07-08T12:09:49;27.00;99.90
2623;DHT22;1321;48.690;9.022;2023-07-08T12:12:23;27.00;99.90
2623;DHT22;1321;48.690;9.022;2023-07-08T12:14:58;27.20;99.90
2623;DHT22;1321;48.690;9.022;2023-07-08T12:17:28;27.50;99.90
2623;DHT22;1321;48.690;9.022;2023-07-08T12:20:00;27.50;99.90
2623;DHT22;1321;48.690;9.022;2023-07-08T12:22:32;27.40;99.90
2623;DHT22;1321;48.690;9.022;2023-07-08T12:25:02;27.40;99.40
2623;DHT22;1321;48.690;9.022;2023-07-08T12:27:32;27.30;99.90
2623;DHT22;1321;48.690;9.022;2023-07-08T12:30:00;27.40;98.80
2623;DHT22;1321;48.690;9.022;2023-07-08T12:32:29;27.40;99.40
2623;DHT22;1321;48.690;9.022;2023-07-08T12:34:57;27.50;99.70
2623;DHT22;1321;48.690;9.022;2023-07-08T12:37:25;27.40;99.80
2623;DHT22;1321;48.690;9.022;2023-07-08T12:39:55;27.50;99.90
2623;DHT22;1321;48.690;9.022;2023-07-08T12:42:28;27.50;99.50
2623;DHT22;1321;48.690;9.022;2023-07-08T12:44:56;27.50;99.90
2623;DHT22;1321;48.690;9.022;2023-07-08T12:47:25;27.50;99.10
2623;DHT22;1321;48.690;9.022;2023-07-08T12:49:53;27.50;99.20
2623;DHT22;1321;48.690;9.022;2023-07-08T12:52:22;27.60;99.20
2623;DHT22;1321;48.690;9.022;2023-07-08T12:54:50;27.60;99.80
2623;DHT22;1321;48.690;9.022;2023-07-08T12:57:19;27.60;99.90
2623;DHT22;1321;48.690;9.022;2023-07-08T12:59:48;27.60;99.40
2623;DHT22;1321;48.690;9.022;2023-07-08T13:02:19;27.50;99.00
2623;DHT22;1321;48.690;9.022;2023-07-08T13:04:52;27.60;99.20
2623;DHT22;1321;48.690;9.022;2023-07-08T13:07:28;27.60;99.60
2623;DHT22;1321;48.690;9.022;2023-07-08T13:09:59;27.60;98.80
2623;DHT22;1321;48.690;9.022;2023-07-08T13:12:28;27.60;98.30
2623;DHT22;1321;48.690;9.022;2023-07-08T13:14:58;27.60;98.50
2623;DHT22;1321;48.690;9.022;2023-07-08T13:17:27;27.50;97.20
2623;DHT22;1321;48.690;9.022;2023-07-08T13:19:56;27.50;97.90
2623;DHT22;1321;48.690;9.022;2023-07-08T13:22:25;27.60;98.90
2623;DHT22;1321;48.690;9.022;2023-07-08T13:25:17;27.70;99.40
2623;DHT22;1321;48.690;9.022;2023-07-08T13:28:18;27.70;98.00
2623;DHT22;1321;48.690;9.022;2023-07-08T13:30:52;27.70;98.60
2623;DHT22;1321;48.690;9.022;2023-07-08T13:33:21;27.70;99.10
2623;DHT22;1321;48.690;9.022;2023-07-08T13:35:51;27.70;96.90
2623;DHT22;1321;48.690;9.022;2023-07-08T13:38:21;27.60;97.20
2623;DHT22;1321;48.690;9.022;2023-07-08T13:40:53;27.50;96.40
2623;DHT22;1321;48.690;9.022;2023-07-08T13:43:24;27.60;96.30
2623;DHT22;1321;48.690;9.022;2023-07-08T13:45:55;27.50;96.00
2623;DHT22;1321;48.690;9.022;2023-07-08T13:48:27;27.60;96.90
2623;DHT22;1321;48.690;9.022;2023-07-08T13:50:57;27.60;97.30
2623;DHT22;1321;48.690;9.022;2023-07-08T13:53:32;27.50;98.00
2623;DHT22;1321;48.690;9.022;2023-07-08T13:56:03;27.50;97.20
2623;DHT22;1321;48.690;9.022;2023-07-08T13:58:31;27.50;98.90
2623;DHT22;1321;48.690;9.022;2023-07-08T14:01:01;27.40;97.80
2623;DHT22;1321;48.690;9.022;2023-07-08T14:03:29;27.40;97.60
2623;DHT22;1321;48.690;9.022;2023-07-08T14:06:01;27.50;97.10
2623;DHT22;1321;48.690;9.022;2023-07-08T14:08:29;27.50;97.80
2623;DHT22;1321;48.690;9.022;2023-07-08T14:10:57;27.60;98.90
2623;DHT22;1321;48.690;9.022;2023-07-08T14:13:25;27.70;99.60
2623;DHT22;1321;48.690;9.022;2023-07-08T14:15:54;27.90;98.80
2623;DHT22;1321;48.690;9.022;2023-07-08T14:18:24;27.90;98.60
2623;DHT22;1321;48.690;9.022;2023-07-08T14:20:52;27.70;98.40
2623;DHT22;1321;48.690;9.022;2023-07-08T14:23:20;27.70;98.00
2623;DHT22;1321;48.690;9.022;2023-07-08T14:25:48;27.60;97.60
2623;DHT22;1321;48.690;9.022;2023-07-08T14:28:17;27.60;98.00
2623;DHT22;1321;48.690;9.022;2023-07-08T14:30:47;27.50;97.70
2623;DHT22;1321;48.690;9.022;2023-07-08T14:33:16;27.50;96.90
2623;DHT22;1321;48.690;9.022;2023-07-08T14:35:45;27.60;97.60
2623;DHT22;1321;48.690;9.022;2023-07-08T14:38:13;27.60;97.90
2623;DHT22;1321;48.690;9.022;2023-07-08T14:40:42;27.60;97.80
2623;DHT22;1321;48.690;9.022;2023-07-08T14:43:16;27.60;97.40
2623;DHT22;1321;48.690;9.022;2023-07-08T14:45:48;27.60;96.60
2623;DHT22;1321;48.690;9.022;2023-07-08T14:48:17;27.70;97.20
2623;DHT22;1321;48.690;9.022;2023-07-08T14:50:47;27.60;96.30
2623;DHT22;1321;48.690;9.022;2023-07-08T14:53:16;27.60;96.90
2623;DHT22;1321;48.690;9.022;2023-07-08T14:55:47;27.70;99.90
2623;DHT22;1321;48.690;9.022;2023-07-08T14:58:21;27.70;97.30
2623;DHT22;1321;48.690;9.022;2023-07-08T15:00:50;27.80;97.70
2623;DHT22;1321;48.690;9.022;2023-07-08T15:03:19;27.80;97.50
2623;DHT22;1321;48.690;9.022;2023-07-08T15:05:48;27.80;98.60
2623;DHT22;1321;48.690;9.022;2023-07-08T15:08:17;27.80;98.20
2623;DHT22;1321;48.690;9.022;2023-07-08T15:10:47;27.90;98.20
2623;DHT22;1321;48.690;9.022;2023-07-08T15:13:18;27.80;97.40
2623;DHT22;1321;48.690;9.022;2023-07-08T15:15:47;27.90;97.20
2623;DHT22;1321;48.690;9.022;2023-07-08T15:18:17;27.90;97.80
2623;DHT22;1321;48.690;9.022;2023-07-08T15:20:47;28.00;98.90
2623;DHT22;1321;48.690;9.022;2023-07-08T15:23:16;28.00;98.50
2623;DHT22;1321;48.690;9.022;2023-07-08T15:25:47;28.00;98.80
2623;DHT22;1321;48.690;9.022;2023-07-08T15:28:17;27.80;98.50
2623;DHT22;1321;48.690;9.022;2023-07-08T15:30:46;27.90;98.60
2623;DHT22;1321;48.690;9.022;2023-07-08T15:33:16;27.90;98.50
2623;DHT22;1321;48.690;9.022;2023-07-08T15:35:44;27.90;98.40
2623;DHT22;1321;48.690;9.022;2023-07-08T15:38:13;27.90;97.80
2623;DHT22;1321;48.690;9.022;2023-07-08T15:40:41;27.80;97.10
2623;DHT22;1321;48.690;9.022;2023-07-08T15:43:13;27.80;97.50
2623;DHT22;1321;48.690;9.022;2023-07-08T15:45:42;27.80;97.00
2623;DHT22;1321;48.690;9.022;2023-07-08T15:48:13;27.90;97.80
2623;DHT22;1321;48.690;9.022;2023-07-08T15:50:41;27.80;97.90
2623;DHT22;1321;48.690;9.022;2023-07-08T15:53:10;27.90;98.10
2623;DHT22;1321;48.690;9.022;2023-07-08T15:55:41;27.80;98.30
2623;DHT22;1321;48.690;9.022;2023-07-08T15:58:11;27.90;98.40
2623;DHT22;1321;48.690;9.022;2023-07-08T16:00:41;27.90;98.60
2623;DHT22;1321;48.690;9.022;2023-07-08T16:03:13;27.90;97.80
2623;DHT22;1321;48.690;9.022;2023-07-08T16:05:44;28.00;97.90
2623;DHT22;1321;48.690;9.022;2023-07-08T16:08:12;27.90;97.70
2623;DHT22;1321;48.690;9.022;2023-07-08T16:10:53;27.80;97.60
2623;DHT22;1321;48.690;9.022;2023-07-08T16:13:26;27.70;97.80
2623;DHT22;1321;48.690;9.022;2023-07-08T16:15:54;27.60;98.00
2623;DHT22;1321;48.690;9.022;2023-07-08T16:18:23;27.60;97.40
2623;DHT22;1321;48.690;9.022;2023-07-08T16:20:52;27.70;96.40
2623;DHT22;1321;48.690;9.022;2023-07-08T16:23:20;27.70;96.20
2623;DHT22;1321;48.690;9.022;2023-07-08T16:25:51;27.70;96.60
2623;DHT22;1321;48.690;9.022;2023-07-08T16:28:25;27.60;97.00
2623;DHT22;1321;48.690;9.022;2023-07-08T16:30:55;27.60;96.10